Algernon, Nebraska
Current Conditions -  °F | °C
As of 7:53 PM on Friday 24 Oct 2014 (Local Time) from KBBW Reporting Station
Clear Clear  
Wind Chill: 57°   Ceiling: Unl
Heat Index: 57°   Visibility: 10mi
Dew Point: 40°   Wind: 3mph
Humidity: 53%   Direction: 340°NNW
Pressure: 30"   Gusts: NA
Location:  41.1632°N, 99.3112°W
Report Text: KBBW 250053Z AUTO 34003KT 10SM CLR 14/04 A3000 RMK AO2 SLP152 T01390044
Loading
Personal Weather Stations






























Interactive Weather Map
Tropical Storm Tracking
New forecast layout! Learn more

10-Day Weather Forecast

Advertisements
Track Severe Weather on mobile